createdAt,value
2022-10-20T00:00:21.680Z,13.70
2022-10-20T00:02:48.549Z,14.20
2022-10-20T00:05:15.426Z,16.77
2022-10-20T00:07:42.119Z,13.25
2022-10-20T00:10:09.290Z,16.42
2022-10-20T00:12:36.883Z,16.90
2022-10-20T00:15:04.131Z,14.45
2022-10-20T00:17:31.850Z,14.38
2022-10-20T00:19:58.591Z,13.65
2022-10-20T00:22:25.324Z,18.30
2022-10-20T00:24:52.382Z,12.85
2022-10-20T00:27:19.040Z,17.70
2022-10-20T00:29:48.085Z,13.63
2022-10-20T00:32:15.112Z,13.57
2022-10-20T00:34:41.806Z,18.48
2022-10-20T00:37:08.505Z,16.55
2022-10-20T00:39:35.174Z,12.07
2022-10-20T00:42:05.498Z,14.07
2022-10-20T00:44:50.057Z,15.30
2022-10-20T00:47:38.855Z,14.23
2022-10-20T00:50:37.636Z,14.73
2022-10-20T00:53:05.501Z,18.45
2022-10-20T00:55:36.020Z,16.83
2022-10-20T00:58:04.459Z,15.45
2022-10-20T01:00:31.878Z,16.85
2022-10-20T01:03:01.640Z,14.75
2022-10-20T01:05:29.055Z,11.07
2022-10-20T01:07:56.231Z,14.32
2022-10-20T01:10:27.001Z,12.77
2022-10-20T01:13:19.833Z,16.60
2022-10-20T01:16:04.355Z,18.40
2022-10-20T01:18:52.133Z,23.25
2022-10-20T01:21:25.395Z,19.70
2022-10-20T01:24:17.585Z,13.47
2022-10-20T01:27:26.290Z,12.88
2022-10-20T01:30:05.442Z,15.60
2022-10-20T01:32:49.620Z,17.25
2022-10-20T01:35:19.023Z,19.00
2022-10-20T01:37:56.562Z,18.25
2022-10-20T01:40:36.529Z,13.57
2022-10-20T01:43:08.170Z,13.77
2022-10-20T01:45:38.739Z,16.77
2022-10-20T01:48:07.781Z,18.23
2022-10-20T01:50:37.177Z,14.73
2022-10-20T01:53:04.304Z,15.60
2022-10-20T01:55:32.699Z,15.40
2022-10-20T01:58:24.532Z,17.90
2022-10-20T02:00:52.896Z,15.43
2022-10-20T02:03:45.168Z,19.45
2022-10-20T02:06:24.742Z,16.40
2022-10-20T02:08:55.698Z,19.42
2022-10-20T02:11:56.019Z,15.65
2022-10-20T02:14:23.856Z,14.55
2022-10-20T02:16:56.753Z,15.25
2022-10-20T02:19:28.637Z,14.27
2022-10-20T02:21:57.467Z,17.20
2022-10-20T02:24:29.068Z,16.77
2022-10-20T02:26:59.054Z,13.52
2022-10-20T02:29:30.842Z,19.90
2022-10-20T02:31:59.444Z,19.45
2022-10-20T02:34:27.160Z,18.88
2022-10-20T02:36:59.138Z,19.13
2022-10-20T02:39:26.860Z,15.75
2022-10-20T02:41:55.863Z,17.85
2022-10-20T02:44:23.054Z,19.00
2022-10-20T02:46:49.900Z,15.35
2022-10-20T02:49:16.777Z,18.75
2022-10-20T02:51:43.473Z,15.05
2022-10-20T02:54:10.218Z,17.60
2022-10-20T02:56:36.872Z,14.93
2022-10-20T02:59:03.582Z,19.05
2022-10-20T03:01:30.317Z,14.88
2022-10-20T03:03:59.810Z,12.85
2022-10-20T03:06:27.210Z,14.70
2022-10-20T03:08:53.912Z,17.58
2022-10-20T03:11:21.906Z,17.15
2022-10-20T03:13:49.662Z,15.75
2022-10-20T03:16:16.417Z,14.73
2022-10-20T03:18:43.150Z,15.63
2022-10-20T03:21:09.938Z,15.93
2022-10-20T03:23:36.614Z,15.93
2022-10-20T03:26:04.769Z,16.48
2022-10-20T03:28:31.636Z,17.85
2022-10-20T03:30:59.040Z,13.65
2022-10-20T03:33:26.339Z,15.23
2022-10-20T03:35:53.400Z,17.17
2022-10-20T03:38:20.371Z,18.52
2022-10-20T03:40:48.931Z,17.58
2022-10-20T03:43:15.702Z,18.40
2022-10-20T03:45:43.517Z,14.38
2022-10-20T03:48:11.870Z,14.18
2022-10-20T03:50:40.454Z,13.35
2022-10-20T03:53:07.564Z,14.52
2022-10-20T03:55:34.424Z,15.23
2022-10-20T03:58:01.120Z,11.07
2022-10-20T04:00:27.788Z,15.30
2022-10-20T04:02:54.787Z,17.42
2022-10-20T04:05:21.673Z,16.33
2022-10-20T04:07:48.909Z,14.77
2022-10-20T04:10:17.098Z,16.30
2022-10-20T04:12:43.834Z,12.18
2022-10-20T04:15:10.984Z,17.52
2022-10-20T04:20:24.512Z,15.52
2022-10-20T04:22:51.344Z,17.05
2022-10-20T04:25:18.378Z,15.05
2022-10-20T04:27:45.132Z,14.82
2022-10-20T04:30:12.155Z,11.70
2022-10-20T04:32:39.186Z,14.55
2022-10-20T04:35:06.346Z,14.70
2022-10-20T04:37:33.408Z,12.23
2022-10-20T04:40:01.314Z,12.50
2022-10-20T04:42:28.386Z,17.45
2022-10-20T04:44:55.121Z,12.85
2022-10-20T04:47:22.066Z,15.48
2022-10-20T04:49:48.790Z,15.57
2022-10-20T04:52:15.469Z,12.23
2022-10-20T04:54:42.140Z,14.85
2022-10-20T04:57:10.787Z,20.08
2022-10-20T04:59:37.515Z,13.23
2022-10-20T05:02:04.384Z,14.93
2022-10-20T05:04:31.782Z,17.00
2022-10-20T05:06:58.569Z,13.93
2022-10-20T05:09:25.319Z,16.13
2022-10-20T05:11:53.475Z,12.20
2022-10-20T05:14:20.464Z,11.27
2022-10-20T05:16:48.249Z,12.23
2022-10-20T05:19:15.024Z,11.40
2022-10-20T05:24:30.158Z,17.88
2022-10-20T05:26:56.988Z,14.32
2022-10-20T05:29:23.629Z,13.98
2022-10-20T05:31:51.611Z,14.15
2022-10-20T05:34:18.304Z,15.18
2022-10-20T05:36:45.292Z,19.92
2022-10-20T05:39:12.184Z,16.55
2022-10-20T05:41:39.326Z,13.00
2022-10-20T05:44:09.198Z,17.15
2022-10-20T05:46:41.826Z,18.80
2022-10-20T05:49:16.718Z,14.15
2022-10-20T05:51:47.456Z,13.90
2022-10-20T05:54:15.874Z,16.23
2022-10-20T05:56:43.217Z,17.55
2022-10-20T05:59:13.476Z,18.55
2022-10-20T06:01:49.897Z,17.52
2022-10-20T06:04:28.075Z,12.30
2022-10-20T06:06:56.137Z,15.30
2022-10-20T06:09:24.457Z,18.65
2022-10-20T06:11:52.506Z,13.20
2022-10-20T06:14:22.552Z,17.33
2022-10-20T06:16:53.627Z,17.75
2022-10-20T06:19:20.554Z,13.35
2022-10-20T06:21:48.943Z,12.48
2022-10-20T06:24:17.053Z,14.68
2022-10-20T06:26:45.916Z,13.80
2022-10-20T06:29:18.271Z,13.80
2022-10-20T06:31:47.642Z,15.13
2022-10-20T06:34:19.185Z,15.48
2022-10-20T06:36:46.696Z,13.68
2022-10-20T06:39:17.514Z,15.00
2022-10-20T06:41:48.541Z,15.25
2022-10-20T06:44:15.306Z,13.60
2022-10-20T06:46:45.403Z,14.23
2022-10-20T06:49:13.047Z,15.65
2022-10-20T06:51:39.885Z,15.15
2022-10-20T06:54:07.163Z,18.95
2022-10-20T06:56:35.770Z,12.52
2022-10-20T06:59:03.245Z,12.40
2022-10-20T07:01:35.084Z,13.35
2022-10-20T07:04:11.097Z,16.77
2022-10-20T07:06:40.352Z,13.10
2022-10-20T07:09:08.719Z,14.85
2022-10-20T07:11:37.101Z,15.85
2022-10-20T07:14:04.612Z,20.10
2022-10-20T07:16:34.437Z,16.58
2022-10-20T07:19:02.346Z,13.48
2022-10-20T07:21:35.742Z,14.45
2022-10-20T07:24:06.741Z,13.60
2022-10-20T07:26:36.462Z,15.68
2022-10-20T07:29:04.399Z,13.77
2022-10-20T07:31:39.786Z,16.45
2022-10-20T07:34:26.142Z,18.95
2022-10-20T07:36:54.106Z,16.23
2022-10-20T07:39:20.815Z,13.98
2022-10-20T07:41:48.398Z,18.25
2022-10-20T07:44:16.012Z,11.88
2022-10-20T07:46:42.808Z,16.30
2022-10-20T07:49:43.423Z,19.45
2022-10-20T07:51:56.984Z,15.63
2022-10-20T07:54:23.738Z,15.10
2022-10-20T07:56:50.637Z,17.10
2022-10-20T07:59:17.482Z,15.85
2022-10-20T08:01:44.556Z,16.30
2022-10-20T08:04:11.708Z,16.20
2022-10-20T08:06:39.411Z,14.70
2022-10-20T08:09:07.390Z,14.00
2022-10-20T08:11:34.856Z,15.32
2022-10-20T08:14:01.627Z,15.32
2022-10-20T08:21:50.490Z,23.63
2022-10-20T08:24:17.275Z,12.68
2022-10-20T08:26:44.255Z,15.85
2022-10-20T08:29:12.457Z,18.38
2022-10-20T08:31:44.679Z,13.68
2022-10-20T08:34:11.572Z,17.38
2022-10-20T08:36:38.570Z,16.33
2022-10-20T08:39:06.432Z,16.58
2022-10-20T08:42:06.276Z,17.00
2022-10-20T08:44:34.519Z,15.43
2022-10-20T08:47:14.231Z,14.15
2022-10-20T08:49:40.973Z,22.00
2022-10-20T08:52:15.066Z,17.88
2022-10-20T08:57:23.333Z,18.23
2022-10-20T08:59:59.030Z,14.95
2022-10-20T09:02:35.473Z,15.18
2022-10-20T09:05:02.578Z,18.35
2022-10-20T09:07:35.208Z,16.63
2022-10-20T09:10:14.627Z,16.42
2022-10-20T09:12:44.270Z,16.90
2022-10-20T09:15:13.048Z,15.77
2022-10-20T09:17:51.642Z,14.85
2022-10-20T09:20:58.845Z,16.48
2022-10-20T09:23:41.965Z,17.00
2022-10-20T09:26:24.959Z,21.05
2022-10-20T09:29:22.737Z,14.82
2022-10-20T09:31:54.891Z,16.92
2022-10-20T09:34:21.521Z,18.08
2022-10-20T09:36:50.063Z,17.52
2022-10-20T09:39:27.221Z,13.40
2022-10-20T09:42:03.791Z,18.58
2022-10-20T09:44:34.167Z,16.33
2022-10-20T09:47:02.769Z,15.15
2022-10-20T09:49:34.798Z,14.57
2022-10-20T09:52:04.302Z,20.40
2022-10-20T09:54:31.276Z,16.95
2022-10-20T09:57:06.930Z,18.58
2022-10-20T09:59:40.421Z,15.60
2022-10-20T10:02:16.266Z,16.15
2022-10-20T10:04:45.820Z,14.05
2022-10-20T10:07:27.823Z,17.58
2022-10-20T10:10:02.473Z,15.18
2022-10-20T10:12:33.048Z,17.30
2022-10-20T10:15:03.040Z,21.42
2022-10-20T10:17:39.485Z,15.85
2022-10-20T10:20:33.396Z,16.67
2022-10-20T10:23:22.804Z,17.63
2022-10-20T10:25:51.725Z,15.63
2022-10-20T10:28:38.952Z,15.25
2022-10-20T10:31:16.028Z,21.02
2022-10-20T10:33:42.858Z,19.77
2022-10-20T10:36:32.982Z,15.23
2022-10-20T10:39:00.099Z,23.00
2022-10-20T10:42:01.574Z,18.00
2022-10-20T10:45:03.881Z,19.92
2022-10-20T10:48:17.234Z,14.52
2022-10-20T10:50:54.685Z,19.70
2022-10-20T10:53:48.966Z,18.48
2022-10-20T10:56:45.197Z,18.83
2022-10-20T10:59:21.498Z,17.70
2022-10-20T11:01:57.447Z,15.75
2022-10-20T11:05:07.892Z,17.05
2022-10-20T11:07:43.489Z,15.38
2022-10-20T11:10:31.749Z,13.70
2022-10-20T11:13:26.010Z,20.02
2022-10-20T11:16:11.846Z,18.95
2022-10-20T11:19:13.158Z,15.55
2022-10-20T11:22:01.406Z,17.83
2022-10-20T11:24:40.056Z,14.38
2022-10-20T11:27:12.890Z,17.42
2022-10-20T11:29:48.084Z,18.33
2022-10-20T11:32:14.760Z,21.00
2022-10-20T11:35:02.191Z,17.30
2022-10-20T11:37:30.681Z,19.45
2022-10-20T11:40:15.474Z,18.75
2022-10-20T11:42:59.262Z,17.73
2022-10-20T11:45:55.954Z,18.00
2022-10-20T11:48:22.870Z,13.70
2022-10-20T11:51:01.593Z,17.55
2022-10-20T11:53:38.229Z,15.77
2022-10-20T11:56:30.190Z,14.80
2022-10-20T11:59:31.199Z,17.25
2022-10-20T12:02:36.257Z,16.45
2022-10-20T12:05:25.009Z,15.02
2022-10-20T12:08:30.738Z,16.63
2022-10-20T12:11:19.264Z,17.02
2022-10-20T12:14:02.888Z,16.35
2022-10-20T12:16:54.539Z,17.17
2022-10-20T12:19:30.281Z,16.00
2022-10-20T12:22:01.409Z,17.52
2022-10-20T12:24:34.039Z,17.40
2022-10-20T12:27:06.456Z,20.63
2022-10-20T12:29:33.132Z,16.35
2022-10-20T12:32:22.223Z,16.23
2022-10-20T12:35:23.778Z,18.42
2022-10-20T12:38:02.458Z,16.63
2022-10-20T12:40:41.002Z,20.52
2022-10-20T12:43:32.010Z,18.55
2022-10-20T12:46:05.010Z,20.50
2022-10-20T12:48:36.297Z,17.33
2022-10-20T12:51:08.814Z,20.45
2022-10-20T12:53:35.958Z,15.07
2022-10-20T12:56:09.861Z,18.73
2022-10-20T12:58:38.639Z,21.08
2022-10-20T13:01:07.604Z,16.08
2022-10-20T13:03:40.950Z,18.77
2022-10-20T13:06:23.097Z,15.93
2022-10-20T13:09:05.960Z,15.05
2022-10-20T13:11:38.760Z,16.02
2022-10-20T13:14:28.394Z,21.33
2022-10-20T13:17:19.086Z,20.90
2022-10-20T13:19:51.334Z,19.08
2022-10-20T13:22:35.781Z,19.20
2022-10-20T13:27:30.829Z,21.60
2022-10-20T13:29:59.754Z,20.73
2022-10-20T13:33:18.158Z,20.27
2022-10-20T13:35:54.745Z,19.77
2022-10-20T13:38:30.767Z,26.23
2022-10-20T13:41:16.587Z,17.70
2022-10-20T13:44:15.976Z,17.52
2022-10-20T13:46:51.865Z,17.63
2022-10-20T13:49:52.575Z,21.63
2022-10-20T13:52:21.542Z,22.45
2022-10-20T13:54:51.278Z,17.33
2022-10-20T13:57:36.332Z,19.20
2022-10-20T14:00:19.790Z,21.45
2022-10-20T14:02:57.584Z,18.75
2022-10-20T14:05:27.968Z,21.20
2022-10-20T14:07:56.082Z,18.63
2022-10-20T14:10:39.940Z,23.05
2022-10-20T14:13:14.396Z,17.05
2022-10-20T14:15:48.062Z,19.23
2022-10-20T14:18:27.793Z,16.92
2022-10-20T14:20:59.162Z,19.13
2022-10-20T14:23:28.278Z,17.15
2022-10-20T14:25:57.905Z,17.83
2022-10-20T14:28:33.269Z,19.75
2022-10-20T14:31:00.715Z,17.15
2022-10-20T14:33:30.274Z,23.42
2022-10-20T14:35:59.552Z,20.85
2022-10-20T14:38:35.453Z,19.77
2022-10-20T14:41:03.444Z,22.63
2022-10-20T14:44:00.721Z,24.35
2022-10-20T14:46:35.503Z,20.13
2022-10-20T14:49:03.162Z,21.27
2022-10-20T14:51:33.323Z,26.35
2022-10-20T14:54:15.324Z,27.70
2022-10-20T14:56:53.309Z,19.75
2022-10-20T14:59:29.163Z,19.45
2022-10-20T15:02:18.743Z,18.23
2022-10-20T15:04:47.309Z,19.15
2022-10-20T15:07:28.170Z,21.13
2022-10-20T15:10:00.300Z,21.05
2022-10-20T15:12:47.756Z,19.70
2022-10-20T15:15:21.884Z,21.13
2022-10-20T15:20:34.031Z,20.52
2022-10-20T15:23:04.720Z,22.20
2022-10-20T15:25:38.689Z,20.63
2022-10-20T15:28:06.868Z,22.02
2022-10-20T15:30:35.446Z,20.77
2022-10-20T15:33:05.393Z,15.93
2022-10-20T15:35:35.245Z,26.15
2022-10-20T15:38:03.218Z,19.50
2022-10-20T15:40:31.559Z,19.45
2022-10-20T15:42:58.249Z,18.05
2022-10-20T15:45:25.577Z,18.27
2022-10-20T15:47:53.517Z,29.23
2022-10-20T15:50:22.942Z,20.35
2022-10-20T15:52:54.259Z,19.20
2022-10-20T15:55:27.661Z,21.20
2022-10-20T15:57:55.426Z,20.63
2022-10-20T16:00:24.798Z,20.90
2022-10-20T16:02:52.168Z,20.05
2022-10-20T16:05:23.217Z,20.63
2022-10-20T16:07:53.117Z,23.30
2022-10-20T16:10:22.034Z,24.85
2022-10-20T16:12:49.302Z,22.65
2022-10-20T16:15:16.692Z,20.83
2022-10-20T16:17:45.126Z,19.25
2022-10-20T16:20:14.259Z,21.25
2022-10-20T16:22:41.252Z,22.55
2022-10-20T16:25:09.855Z,21.25
2022-10-20T16:27:36.954Z,21.20
2022-10-20T16:30:05.646Z,21.63
2022-10-20T16:32:35.373Z,22.73
2022-10-20T16:35:06.347Z,20.05
2022-10-20T16:37:33.812Z,25.58
2022-10-20T16:40:00.707Z,21.40
2022-10-20T16:42:30.390Z,21.80
2022-10-20T16:44:57.740Z,23.30
2022-10-20T16:47:28.441Z,20.17
2022-10-20T16:49:55.204Z,21.42
2022-10-20T16:52:22.956Z,21.08
2022-10-20T16:54:49.704Z,24.65
2022-10-20T16:57:16.470Z,20.40
2022-10-20T16:59:45.567Z,21.05
2022-10-20T17:02:13.247Z,25.80
2022-10-20T17:04:41.009Z,20.50
2022-10-20T17:07:08.818Z,18.35
2022-10-20T17:09:35.653Z,22.77
2022-10-20T17:12:03.646Z,26.75
2022-10-20T17:14:30.624Z,22.70
2022-10-20T17:16:57.492Z,27.83
2022-10-20T17:19:24.145Z,29.00
2022-10-20T17:21:55.827Z,24.80
2022-10-20T17:24:24.371Z,23.42
2022-10-20T17:26:51.086Z,22.70
2022-10-20T17:29:21.037Z,21.10
2022-10-20T17:31:50.544Z,26.33
2022-10-20T17:34:18.945Z,25.33
2022-10-20T17:36:45.677Z,25.88
2022-10-20T17:39:16.702Z,23.80
2022-10-20T17:41:43.739Z,27.80
2022-10-20T17:44:10.575Z,26.50
2022-10-20T17:46:38.567Z,24.30
2022-10-20T17:49:06.686Z,19.17
2022-10-20T17:51:35.001Z,26.75
2022-10-20T17:54:02.928Z,20.25
2022-10-20T17:56:36.235Z,26.23
2022-10-20T17:59:05.401Z,27.70
2022-10-20T18:01:34.755Z,27.27
2022-10-20T18:04:02.783Z,27.23
2022-10-20T18:06:34.022Z,23.67
2022-10-20T18:09:04.881Z,25.92
2022-10-20T18:11:34.026Z,23.23
2022-10-20T18:14:01.252Z,21.02
2022-10-20T18:16:30.339Z,25.50
2022-10-20T18:21:45.016Z,23.30
2022-10-20T18:24:13.931Z,25.27
2022-10-20T18:26:40.702Z,20.73
2022-10-20T18:29:09.246Z,19.40
2022-10-20T18:31:38.175Z,19.75
2022-10-20T18:34:15.526Z,24.85
2022-10-20T18:36:45.945Z,22.33
2022-10-20T18:39:14.734Z,22.80
2022-10-20T18:41:44.102Z,22.73
2022-10-20T18:44:14.071Z,22.35
2022-10-20T18:46:41.518Z,24.35
2022-10-20T18:49:11.624Z,24.13
2022-10-20T18:51:46.182Z,21.85
2022-10-20T18:54:13.314Z,22.60
2022-10-20T18:56:40.548Z,21.00
2022-10-20T18:59:16.579Z,25.98
2022-10-20T19:01:44.770Z,23.97
2022-10-20T19:04:13.077Z,22.05
2022-10-20T19:06:42.433Z,21.98
2022-10-20T19:09:12.869Z,23.83
2022-10-20T19:11:40.403Z,22.67
2022-10-20T19:14:11.791Z,22.63
2022-10-20T19:16:41.636Z,26.63
2022-10-20T19:20:15.890Z,24.60
2022-10-20T19:22:43.967Z,20.38
2022-10-20T19:25:10.778Z,26.17
2022-10-20T19:27:37.538Z,26.73
2022-10-20T20:27:11.154Z,25.77
2022-10-20T20:29:38.312Z,28.50
2022-10-20T20:32:05.831Z,25.48
2022-10-20T20:34:32.819Z,26.27
2022-10-20T20:37:00.557Z,33.65
2022-10-20T20:39:27.212Z,24.17
2022-10-20T20:41:53.979Z,28.00
2022-10-20T20:44:20.759Z,24.80
2022-10-20T20:46:47.445Z,26.02
2022-10-20T20:49:15.042Z,25.60
2022-10-20T20:51:41.755Z,26.55
2022-10-20T20:54:10.304Z,24.55
2022-10-20T20:56:37.169Z,27.00
2022-10-20T20:59:05.066Z,23.35
2022-10-20T21:01:32.241Z,24.33
2022-10-20T21:04:02.197Z,25.98
2022-10-20T21:06:33.967Z,26.65
2022-10-20T21:09:11.488Z,26.38
2022-10-20T21:11:38.376Z,26.17
2022-10-20T21:14:05.205Z,26.55
2022-10-20T21:16:34.449Z,26.60
2022-10-20T21:19:07.999Z,31.98
2022-10-20T21:21:40.030Z,22.65
2022-10-20T21:24:06.840Z,27.17
2022-10-20T21:26:33.749Z,25.27
2022-10-20T21:29:03.882Z,25.17
2022-10-20T21:31:31.436Z,27.60
2022-10-20T21:34:00.734Z,24.20
2022-10-20T21:36:29.393Z,23.55
2022-10-20T21:38:56.258Z,25.20
2022-10-20T21:41:25.390Z,24.65
2022-10-20T21:43:54.318Z,26.38
2022-10-20T21:46:22.684Z,25.80
2022-10-20T21:48:51.686Z,26.05
2022-10-20T21:51:28.037Z,31.80
2022-10-20T21:53:59.379Z,25.88
2022-10-20T21:56:26.256Z,26.08
2022-10-20T21:58:54.826Z,31.55
2022-10-20T22:01:24.586Z,24.98
2022-10-20T22:03:52.791Z,24.02
2022-10-20T22:06:21.877Z,22.73
2022-10-20T22:08:53.109Z,29.13
2022-10-20T22:11:25.659Z,23.95
2022-10-20T22:13:52.734Z,22.63
2022-10-20T22:16:22.545Z,25.80
2022-10-20T22:18:53.604Z,25.02
2022-10-20T22:21:20.291Z,25.20
2022-10-20T22:23:47.583Z,22.45
2022-10-20T22:26:15.611Z,23.52
2022-10-20T22:28:42.636Z,20.77
2022-10-20T22:31:11.717Z,23.38
2022-10-20T22:33:41.987Z,23.80
2022-10-20T22:36:08.915Z,15.57
2022-10-20T22:38:35.625Z,26.83
2022-10-20T22:41:03.633Z,22.58
2022-10-20T22:43:31.344Z,17.45
2022-10-20T22:45:58.419Z,22.92
2022-10-20T22:48:25.492Z,19.83
2022-10-20T22:50:52.307Z,20.95
2022-10-20T22:53:19.714Z,17.33
2022-10-20T22:55:47.228Z,20.08
2022-10-20T22:58:14.090Z,15.57
2022-10-20T23:00:42.258Z,18.38
2022-10-20T23:03:09.182Z,18.98
2022-10-20T23:05:36.679Z,18.83
2022-10-20T23:08:03.560Z,19.10
2022-10-20T23:10:31.288Z,18.40
2022-10-20T23:12:58.027Z,19.35
2022-10-20T23:15:24.785Z,19.63
2022-10-20T23:17:51.567Z,13.55
2022-10-20T23:20:19.161Z,8.50
2022-10-20T23:22:48.295Z,8.90
2022-10-20T23:25:16.569Z,9.23
2022-10-20T23:27:43.287Z,7.22
2022-10-20T23:30:11.307Z,10.23
2022-10-20T23:32:38.163Z,9.75
2022-10-20T23:35:05.293Z,8.18
2022-10-20T23:37:32.151Z,11.45
2022-10-20T23:40:00.308Z,8.88
2022-10-20T23:42:28.258Z,7.88
2022-10-20T23:44:54.931Z,7.78
2022-10-20T23:47:21.618Z,12.43
2022-10-20T23:49:48.860Z,7.90
2022-10-20T23:52:16.315Z,7.05
2022-10-20T23:54:43.009Z,8.60
2022-10-20T23:57:09.714Z,9.02
2022-10-20T23:59:36.353Z,10.07
